createdAt,value
2022-12-23T00:01:37.083Z,13.87
2022-12-23T00:04:07.002Z,13.90
2022-12-23T00:06:36.574Z,13.90
2022-12-23T00:09:05.186Z,13.92
2022-12-23T00:11:33.619Z,13.94
2022-12-23T00:14:21.909Z,13.97
2022-12-23T00:16:51.483Z,13.97
2022-12-23T00:19:21.319Z,14.00
2022-12-23T00:21:49.800Z,14.02
2022-12-23T00:24:19.066Z,14.03
2022-12-23T00:26:47.424Z,14.00
2022-12-23T00:29:15.934Z,14.03
2022-12-23T00:31:44.317Z,14.03
2022-12-23T00:34:13.194Z,14.02
2022-12-23T00:36:43.092Z,13.96
2022-12-23T00:39:30.960Z,13.95
2022-12-23T00:42:17.413Z,13.89
2022-12-23T00:44:46.064Z,13.87
2022-12-23T00:47:35.191Z,13.86
2022-12-23T00:50:02.435Z,13.85
2022-12-23T00:52:32.129Z,13.86
2022-12-23T00:55:00.418Z,13.83
2022-12-23T00:57:28.680Z,13.82
2022-12-23T00:59:57.024Z,13.89
2022-12-23T01:02:42.801Z,13.91
2022-12-23T01:05:29.715Z,13.92
2022-12-23T01:08:00.361Z,13.88
2022-12-23T01:10:28.708Z,13.92
2022-12-23T01:12:56.966Z,13.93
2022-12-23T01:15:25.388Z,13.94
2022-12-23T01:17:53.741Z,13.97
2022-12-23T01:20:22.256Z,13.97
2022-12-23T01:22:50.529Z,13.88
2022-12-23T01:25:20.235Z,13.98
2022-12-23T01:27:48.510Z,13.99
2022-12-23T01:30:16.984Z,14.00
2022-12-23T01:32:45.187Z,14.01
2022-12-23T01:35:14.484Z,14.00
2022-12-23T01:37:42.758Z,13.98
2022-12-23T01:40:11.777Z,13.99
2022-12-23T01:42:47.565Z,14.01
2022-12-23T01:45:19.496Z,14.02
2022-12-23T01:47:53.758Z,13.85
2022-12-23T01:50:27.012Z,14.01
2022-12-23T01:53:06.973Z,14.03
2022-12-23T01:55:40.015Z,13.07
2022-12-23T01:58:13.803Z,14.04
2022-12-23T02:01:01.201Z,14.04
2022-12-23T02:03:45.238Z,14.03
2022-12-23T02:06:37.801Z,14.04
2022-12-23T02:09:18.816Z,14.01
2022-12-23T02:12:22.593Z,14.03
2022-12-23T02:15:25.375Z,14.02
2022-12-23T02:18:06.635Z,14.00
2022-12-23T02:21:00.806Z,13.99
2022-12-23T02:24:17.205Z,13.80
2022-12-23T02:27:20.220Z,13.97
2022-12-23T02:30:25.365Z,13.97
2022-12-23T02:33:17.880Z,13.96
2022-12-23T02:35:54.601Z,13.99
2022-12-23T02:38:31.578Z,14.01
2022-12-23T02:41:09.809Z,14.00
2022-12-23T02:43:46.524Z,13.81
2022-12-23T02:46:23.635Z,13.76
2022-12-23T02:48:58.225Z,13.69
2022-12-23T02:51:32.667Z,14.02
2022-12-23T02:54:04.636Z,14.03
2022-12-23T02:56:36.441Z,13.84
2022-12-23T02:59:09.944Z,14.02
2022-12-23T03:01:41.201Z,14.00
2022-12-23T03:04:10.098Z,14.01
2022-12-23T03:06:41.787Z,13.86
2022-12-23T03:09:11.295Z,13.99
2022-12-23T03:11:51.130Z,14.02
2022-12-23T03:14:35.712Z,14.00
2022-12-23T03:17:19.022Z,13.79
2022-12-23T03:19:54.287Z,13.99
2022-12-23T03:22:27.058Z,13.84
2022-12-23T03:25:03.340Z,14.02
2022-12-23T03:27:38.413Z,14.03
2022-12-23T03:30:09.410Z,13.90
2022-12-23T03:32:45.093Z,14.08
2022-12-23T03:35:17.109Z,14.07
2022-12-23T03:37:50.202Z,13.22
2022-12-23T03:40:23.935Z,14.11
2022-12-23T03:42:56.322Z,14.12
2022-12-23T03:45:38.599Z,14.17
2022-12-23T03:48:16.673Z,14.11
2022-12-23T03:50:46.568Z,14.21
2022-12-23T03:53:19.920Z,14.24
2022-12-23T03:55:52.191Z,14.27
2022-12-23T03:58:30.377Z,14.07
2022-12-23T04:01:06.045Z,14.24
2022-12-23T04:03:42.897Z,14.04
2022-12-23T04:06:16.593Z,14.15
2022-12-23T04:08:47.499Z,14.23
2022-12-23T04:11:16.408Z,14.22
2022-12-23T04:13:44.900Z,14.20
2022-12-23T04:16:13.482Z,14.20
2022-12-23T04:18:43.364Z,14.21
2022-12-23T04:21:11.728Z,14.18
2022-12-23T04:23:40.409Z,14.19
2022-12-23T04:26:08.659Z,14.20
2022-12-23T04:28:36.937Z,14.21
2022-12-23T04:31:05.493Z,14.22
2022-12-23T04:33:33.918Z,14.22
2022-12-23T04:36:03.579Z,14.24
2022-12-23T04:38:31.896Z,14.19
2022-12-23T04:41:00.203Z,14.19
2022-12-23T04:43:28.621Z,14.18
2022-12-23T04:45:56.908Z,14.20
2022-12-23T04:48:25.327Z,14.20
2022-12-23T04:50:53.595Z,14.16
2022-12-23T04:53:23.334Z,14.20
2022-12-23T04:55:52.239Z,14.19
2022-12-23T04:58:22.223Z,14.19
2022-12-23T05:00:50.602Z,14.19
2022-12-23T05:03:19.086Z,14.16
2022-12-23T05:05:47.458Z,14.20
2022-12-23T05:08:15.703Z,14.98
2022-12-23T05:10:46.055Z,14.58
2022-12-23T05:13:14.426Z,14.37
2022-12-23T05:15:45.240Z,14.29
2022-12-23T05:18:13.949Z,14.25
2022-12-23T05:20:42.299Z,14.23
2022-12-23T05:23:11.129Z,14.21
2022-12-23T05:25:40.966Z,14.18
2022-12-23T05:28:10.811Z,14.20
2022-12-23T05:30:40.080Z,14.22
2022-12-23T05:33:08.484Z,14.21
2022-12-23T05:35:36.693Z,14.21
2022-12-23T05:38:05.006Z,14.23
2022-12-23T05:40:33.246Z,14.22
2022-12-23T05:43:02.255Z,14.23
2022-12-23T05:45:36.008Z,14.24
2022-12-23T05:48:04.767Z,14.24
2022-12-23T05:50:34.188Z,14.26
2022-12-23T05:53:04.299Z,14.26
2022-12-23T05:55:32.770Z,14.26
2022-12-23T05:58:01.101Z,14.27
2022-12-23T06:00:29.520Z,14.24
2022-12-23T06:03:00.349Z,14.24
2022-12-23T06:05:29.012Z,14.22
2022-12-23T06:07:57.256Z,14.20
2022-12-23T06:10:26.317Z,13.41
2022-12-23T06:12:54.626Z,14.19
2022-12-23T06:15:23.059Z,14.18
2022-12-23T06:17:51.758Z,14.18
2022-12-23T06:20:21.403Z,14.16
2022-12-23T06:22:49.690Z,14.12
2022-12-23T06:25:18.059Z,14.12
2022-12-23T06:27:46.318Z,14.10
2022-12-23T06:30:15.249Z,14.10
2022-12-23T06:32:43.613Z,14.06
2022-12-23T06:35:11.980Z,14.06
2022-12-23T06:37:42.614Z,14.06
2022-12-23T06:40:12.150Z,14.03
2022-12-23T06:42:41.416Z,14.01
2022-12-23T06:45:11.035Z,14.00
2022-12-23T06:47:39.345Z,13.97
2022-12-23T06:50:09.277Z,13.97
2022-12-23T06:52:37.506Z,13.95
2022-12-23T06:55:07.935Z,13.97
2022-12-23T06:57:36.294Z,13.94
2022-12-23T07:00:05.787Z,13.87
2022-12-23T07:02:34.540Z,13.94
2022-12-23T07:05:02.962Z,13.93
2022-12-23T07:07:32.325Z,13.90
2022-12-23T07:10:00.606Z,13.88
2022-12-23T07:12:30.352Z,13.87
2022-12-23T07:14:58.630Z,13.85
2022-12-23T07:17:26.869Z,13.84
2022-12-23T07:19:55.127Z,13.84
2022-12-23T07:22:23.581Z,13.83
2022-12-23T07:24:52.022Z,13.81
2022-12-23T07:27:20.313Z,13.81
2022-12-23T07:29:49.972Z,13.81
2022-12-23T07:32:19.228Z,13.81
2022-12-23T07:34:47.438Z,13.80
2022-12-23T07:37:15.692Z,13.82
2022-12-23T07:39:43.918Z,13.83
2022-12-23T07:45:02.749Z,13.85
2022-12-23T07:47:30.973Z,13.88
2022-12-23T07:49:59.270Z,13.88
2022-12-23T07:52:27.538Z,13.90
2022-12-23T07:54:55.798Z,13.92
2022-12-23T07:57:24.514Z,13.95
2022-12-23T07:59:52.789Z,13.90
2022-12-23T08:02:25.524Z,13.87
2022-12-23T08:04:53.983Z,13.97
2022-12-23T08:07:22.190Z,14.00
2022-12-23T08:09:50.542Z,14.01
2022-12-23T08:12:18.841Z,14.03
2022-12-23T08:14:48.524Z,14.04
2022-12-23T08:17:16.916Z,14.06
2022-12-23T08:19:46.818Z,14.09
2022-12-23T08:22:15.249Z,14.11
2022-12-23T08:24:43.573Z,14.13
2022-12-23T08:27:12.102Z,14.14
2022-12-23T08:29:40.781Z,14.16
2022-12-23T08:32:09.192Z,14.19
2022-12-23T08:34:39.648Z,14.20
2022-12-23T08:37:09.398Z,14.21
2022-12-23T08:39:37.772Z,14.21
2022-12-23T08:42:06.289Z,14.21
2022-12-23T08:44:34.620Z,14.23
2022-12-23T08:47:02.987Z,14.24
2022-12-23T08:49:31.460Z,14.24
2022-12-23T08:51:59.857Z,14.27
2022-12-23T08:54:29.648Z,14.30
2022-12-23T08:56:58.985Z,14.31
2022-12-23T08:59:28.734Z,14.32
2022-12-23T09:01:59.818Z,14.35
2022-12-23T09:04:28.293Z,14.36
2022-12-23T09:06:56.773Z,14.40
2022-12-23T09:09:25.133Z,14.44
2022-12-23T09:11:54.775Z,14.49
2022-12-23T09:14:23.078Z,14.57
2022-12-23T09:16:52.654Z,14.73
2022-12-23T09:19:21.030Z,14.93
2022-12-23T09:21:49.371Z,15.07
2022-12-23T09:24:17.599Z,15.20
2022-12-23T09:26:45.892Z,15.31
2022-12-23T09:29:15.559Z,15.40
2022-12-23T09:31:43.899Z,15.46
2022-12-23T09:34:12.935Z,15.56
2022-12-23T09:36:41.367Z,15.66
2022-12-23T09:39:11.600Z,15.62
2022-12-23T09:41:56.058Z,15.91
2022-12-23T09:44:50.159Z,16.10
2022-12-23T09:47:22.138Z,15.97
2022-12-23T09:49:53.925Z,16.33
2022-12-23T09:52:26.708Z,16.25
2022-12-23T09:54:56.673Z,16.21
2022-12-23T09:57:35.564Z,16.38
2022-12-23T10:00:11.842Z,16.54
2022-12-23T10:03:06.053Z,16.85
2022-12-23T10:05:43.923Z,17.05
2022-12-23T10:08:20.830Z,17.21
2022-12-23T10:10:52.547Z,17.37
2022-12-23T10:13:26.902Z,16.71
2022-12-23T10:15:59.751Z,17.62
2022-12-23T10:18:43.013Z,17.72
2022-12-23T10:21:16.896Z,17.78
2022-12-23T10:23:49.973Z,17.83
2022-12-23T10:26:27.149Z,18.03
2022-12-23T10:29:02.078Z,17.96
2022-12-23T10:31:43.229Z,18.20
2022-12-23T10:34:20.974Z,18.15
2022-12-23T10:36:59.808Z,18.32
2022-12-23T10:39:37.776Z,18.45
2022-12-23T10:42:16.846Z,18.57
2022-12-23T10:45:00.807Z,18.64
2022-12-23T10:47:45.676Z,18.70
2022-12-23T10:50:32.708Z,18.77
2022-12-23T10:53:04.381Z,17.79
2022-12-23T10:55:38.346Z,18.87
2022-12-23T10:58:10.099Z,18.72
2022-12-23T11:00:42.226Z,18.02
2022-12-23T11:03:19.966Z,18.71
2022-12-23T11:05:51.624Z,18.72
2022-12-23T11:08:22.736Z,18.06
2022-12-23T11:10:51.570Z,18.82
2022-12-23T11:13:38.027Z,18.86
2022-12-23T11:16:19.513Z,18.90
2022-12-23T11:18:58.235Z,19.00
2022-12-23T11:21:27.104Z,19.03
2022-12-23T11:24:18.475Z,18.87
2022-12-23T11:26:49.412Z,18.81
2022-12-23T11:29:23.926Z,18.91
2022-12-23T11:31:53.209Z,18.83
2022-12-23T11:34:25.457Z,18.68
2022-12-23T11:37:01.587Z,18.81
2022-12-23T11:39:35.921Z,18.61
2022-12-23T11:42:09.082Z,18.77
2022-12-23T11:44:41.922Z,18.82
2022-12-23T11:47:26.423Z,18.89
2022-12-23T11:49:57.550Z,18.89
2022-12-23T11:52:27.099Z,18.67
2022-12-23T11:54:57.260Z,18.49
2022-12-23T11:57:33.853Z,18.96
2022-12-23T12:00:05.363Z,18.97
2022-12-23T12:02:39.361Z,18.89
2022-12-23T12:05:22.669Z,18.89
2022-12-23T12:07:53.068Z,18.73
2022-12-23T12:10:23.887Z,18.73
2022-12-23T12:12:56.470Z,18.27
2022-12-23T12:15:34.971Z,18.78
2022-12-23T12:18:07.530Z,18.89
2022-12-23T12:20:40.786Z,18.28
2022-12-23T12:23:17.378Z,18.86
2022-12-23T12:25:50.760Z,18.68
2022-12-23T12:31:25.918Z,18.69
2022-12-23T12:34:01.680Z,18.84
2022-12-23T12:36:39.115Z,18.05
2022-12-23T12:39:16.603Z,18.84
2022-12-23T12:41:52.198Z,18.86
2022-12-23T12:44:31.456Z,18.86
2022-12-23T12:47:28.188Z,18.83
2022-12-23T12:50:00.908Z,18.23
2022-12-23T12:52:38.005Z,18.79
2022-12-23T12:55:13.884Z,18.57
2022-12-23T12:57:42.438Z,18.78
2022-12-23T13:00:16.002Z,18.78
2022-12-23T13:03:01.881Z,18.74
2022-12-23T13:05:54.856Z,18.07
2022-12-23T13:08:43.790Z,18.80
2022-12-23T13:11:26.523Z,18.82
2022-12-23T13:14:06.949Z,18.66
2022-12-23T13:16:46.211Z,18.83
2022-12-23T13:19:22.684Z,18.81
2022-12-23T13:21:56.598Z,18.81
2022-12-23T13:24:33.183Z,18.81
2022-12-23T13:27:09.033Z,18.82
2022-12-23T13:29:54.523Z,18.04
2022-12-23T13:32:39.365Z,18.69
2022-12-23T13:35:26.544Z,18.84
2022-12-23T13:38:01.406Z,18.80
2022-12-23T13:40:39.685Z,18.83
2022-12-23T13:43:14.753Z,18.68
2022-12-23T13:45:45.428Z,18.71
2022-12-23T13:48:33.054Z,18.88
2022-12-23T13:51:09.071Z,18.88
2022-12-23T13:53:50.856Z,18.88
2022-12-23T13:56:28.223Z,18.89
2022-12-23T13:58:57.363Z,18.79
2022-12-23T14:01:43.797Z,18.90
2022-12-23T14:04:37.017Z,18.89
2022-12-23T14:07:19.559Z,18.73
2022-12-23T14:09:52.460Z,18.86
2022-12-23T14:12:28.099Z,18.83
2022-12-23T14:15:19.692Z,18.86
2022-12-23T14:18:02.535Z,18.85
2022-12-23T14:20:43.189Z,18.69
2022-12-23T14:23:26.168Z,18.71
2022-12-23T14:26:11.040Z,18.74
2022-12-23T14:28:55.215Z,18.87
2022-12-23T14:31:32.860Z,18.81
2022-12-23T14:34:07.519Z,18.34
2022-12-23T14:36:36.052Z,18.81
2022-12-23T14:39:33.270Z,18.80
2022-12-23T14:42:07.525Z,18.76
2022-12-23T14:44:50.507Z,18.76
2022-12-23T14:47:34.727Z,18.74
2022-12-23T14:50:38.200Z,18.70
2022-12-23T14:53:21.857Z,18.66
2022-12-23T14:55:52.098Z,18.50
2022-12-23T14:58:49.219Z,18.58
2022-12-23T15:01:22.059Z,18.50
2022-12-23T15:04:00.768Z,18.24
2022-12-23T15:06:36.565Z,17.80
2022-12-23T15:09:07.530Z,18.42
2022-12-23T15:11:37.837Z,18.38
2022-12-23T15:14:11.632Z,18.19
2022-12-23T15:16:45.237Z,18.33
2022-12-23T15:19:19.270Z,17.45
2022-12-23T15:21:54.488Z,18.19
2022-12-23T15:24:28.676Z,18.17
2022-12-23T15:27:25.154Z,18.14
2022-12-23T15:29:51.524Z,17.88
2022-12-23T15:32:23.775Z,18.04
2022-12-23T15:34:55.937Z,18.01
2022-12-23T15:37:28.971Z,17.90
2022-12-23T15:40:09.432Z,17.94
2022-12-23T15:42:51.123Z,17.89
2022-12-23T15:45:35.917Z,17.86
2022-12-23T15:48:08.737Z,17.78
2022-12-23T15:50:41.842Z,17.77
2022-12-23T15:53:12.001Z,17.72
2022-12-23T15:55:41.656Z,17.69
2022-12-23T15:58:18.033Z,17.58
2022-12-23T16:00:54.313Z,17.36
2022-12-23T16:03:30.925Z,17.56
2022-12-23T16:06:08.549Z,17.53
2022-12-23T16:08:36.923Z,17.46
2022-12-23T16:11:13.367Z,17.15
2022-12-23T16:13:47.255Z,17.34
2022-12-23T16:16:33.120Z,17.26
2022-12-23T16:19:03.078Z,17.17
2022-12-23T16:21:33.665Z,17.14
2022-12-23T16:24:04.375Z,17.05
2022-12-23T16:26:33.232Z,16.93
2022-12-23T16:29:02.531Z,16.83
2022-12-23T16:31:34.246Z,16.79
2022-12-23T16:34:08.468Z,16.75
2022-12-23T16:36:37.881Z,16.69
2022-12-23T16:39:17.579Z,16.65
2022-12-23T16:41:46.379Z,16.58
2022-12-23T16:44:16.002Z,16.56
2022-12-23T16:46:47.785Z,16.53
2022-12-23T16:49:19.928Z,16.31
2022-12-23T16:51:49.451Z,16.41
2022-12-23T16:54:20.053Z,16.37
2022-12-23T16:56:48.426Z,16.28
2022-12-23T16:59:17.278Z,16.24
2022-12-23T17:01:47.684Z,15.99
2022-12-23T17:04:19.194Z,16.04
2022-12-23T17:06:48.799Z,15.95
2022-12-23T17:09:17.411Z,15.81
2022-12-23T17:11:48.209Z,15.71
2022-12-23T17:14:20.806Z,15.38
2022-12-23T17:16:52.437Z,15.19
2022-12-23T17:19:28.407Z,15.45
2022-12-23T17:22:03.685Z,14.72
2022-12-23T17:24:34.517Z,15.32
2022-12-23T17:27:03.503Z,15.26
2022-12-23T17:29:31.881Z,15.19
2022-12-23T17:32:00.838Z,15.09
2022-12-23T17:34:31.254Z,15.03
2022-12-23T17:37:01.308Z,15.05
2022-12-23T17:39:29.655Z,14.98
2022-12-23T17:41:58.941Z,14.95
2022-12-23T17:44:27.224Z,14.86
2022-12-23T17:46:55.545Z,14.71
2022-12-23T17:49:23.858Z,14.69
2022-12-23T17:51:53.607Z,14.68
2022-12-23T17:54:24.173Z,14.51
2022-12-23T17:56:53.141Z,14.73
2022-12-23T17:59:21.872Z,14.71
2022-12-23T18:01:51.414Z,14.73
2022-12-23T18:04:24.937Z,14.78
2022-12-23T18:06:56.204Z,14.85
2022-12-23T18:09:26.665Z,14.83
2022-12-23T18:11:57.451Z,14.82
2022-12-23T18:14:28.814Z,14.72
2022-12-23T18:16:58.148Z,14.67
2022-12-23T18:19:26.712Z,14.60
2022-12-23T18:21:56.734Z,14.47
2022-12-23T18:24:25.186Z,14.45
2022-12-23T18:26:53.429Z,14.36
2022-12-23T18:29:22.385Z,14.31
2022-12-23T18:31:52.436Z,14.27
2022-12-23T18:34:24.368Z,14.27
2022-12-23T18:36:52.972Z,14.15
2022-12-23T18:39:22.809Z,14.16
2022-12-23T18:41:52.227Z,14.12
2022-12-23T18:44:23.217Z,14.04
2022-12-23T18:46:51.750Z,14.01
2022-12-23T18:49:23.892Z,13.99
2022-12-23T18:51:52.198Z,13.94
2022-12-23T18:54:20.962Z,13.94
2022-12-23T18:56:51.307Z,13.92
2022-12-23T18:59:29.645Z,13.15
2022-12-23T19:01:59.476Z,13.85
2022-12-23T19:04:28.570Z,13.80
2022-12-23T19:06:58.430Z,13.79
2022-12-23T19:09:27.994Z,13.74
2022-12-23T19:11:58.776Z,13.73
2022-12-23T19:14:27.489Z,13.62
2022-12-23T19:16:56.199Z,13.57
2022-12-23T19:19:24.874Z,13.46
2022-12-23T19:21:53.608Z,13.45
2022-12-23T19:24:22.292Z,13.40
2022-12-23T19:26:50.668Z,13.32
2022-12-23T19:29:20.433Z,13.18
2022-12-23T19:31:48.776Z,13.12
2022-12-23T19:34:17.122Z,13.09
2022-12-23T19:36:45.613Z,12.93
2022-12-23T19:39:16.965Z,12.93
2022-12-23T19:41:45.929Z,12.89
2022-12-23T19:44:14.624Z,12.82
2022-12-23T19:46:44.424Z,12.71
2022-12-23T19:49:19.783Z,12.55
2022-12-23T19:51:49.589Z,12.38
2022-12-23T19:54:21.352Z,12.28
2022-12-23T19:56:52.384Z,12.23
2022-12-23T19:59:22.891Z,12.16
2022-12-23T20:01:53.227Z,12.10
2022-12-23T20:04:24.389Z,12.06
2022-12-23T20:06:53.541Z,11.88
2022-12-23T20:09:25.363Z,12.05
2022-12-23T20:11:54.992Z,11.99
2022-12-23T20:14:29.035Z,11.98
2022-12-23T20:17:04.333Z,11.97
2022-12-23T20:19:34.299Z,11.92
2022-12-23T20:22:03.506Z,11.89
2022-12-23T20:24:33.343Z,11.89
2022-12-23T20:27:05.121Z,11.85
2022-12-23T20:29:36.779Z,11.83
2022-12-23T20:32:07.118Z,11.81
2022-12-23T20:34:39.528Z,11.76
2022-12-23T20:37:08.743Z,11.76
2022-12-23T20:39:37.627Z,11.77
2022-12-23T20:42:32.851Z,11.85
2022-12-23T20:45:07.573Z,11.87
2022-12-23T20:48:38.763Z,11.78
2022-12-23T20:50:48.818Z,11.82
2022-12-23T20:53:21.733Z,11.76
2022-12-23T20:55:52.396Z,11.74
2022-12-23T20:58:38.744Z,11.68
2022-12-23T21:01:11.393Z,11.74
2022-12-23T21:03:44.450Z,11.71
2022-12-23T21:06:13.964Z,11.64
2022-12-23T21:08:44.891Z,11.60
2022-12-23T21:11:14.285Z,11.56
2022-12-23T21:13:44.001Z,11.56
2022-12-23T21:16:14.304Z,11.54
2022-12-23T21:18:46.746Z,11.54
2022-12-23T21:21:32.143Z,11.54
2022-12-23T21:24:05.209Z,11.42
2022-12-23T21:26:35.546Z,11.60
2022-12-23T21:29:07.580Z,11.62
2022-12-23T21:31:38.912Z,11.62
2022-12-23T21:34:10.144Z,11.59
2022-12-23T21:36:40.065Z,11.57
2022-12-23T21:39:09.680Z,11.55
2022-12-23T21:41:41.730Z,11.49
2022-12-23T21:44:11.398Z,11.47
2022-12-23T21:46:40.826Z,11.42
2022-12-23T21:49:12.521Z,11.36
2022-12-23T21:51:41.688Z,11.33
2022-12-23T21:54:11.111Z,11.31
2022-12-23T21:56:44.640Z,11.01
2022-12-23T21:59:17.908Z,11.13
2022-12-23T22:01:47.802Z,11.37
2022-12-23T22:04:17.613Z,11.45
2022-12-23T22:06:46.438Z,11.56
2022-12-23T22:09:19.071Z,11.65
2022-12-23T22:11:48.294Z,11.64
2022-12-23T22:14:19.309Z,11.45
2022-12-23T22:16:48.035Z,11.60
2022-12-23T22:19:18.098Z,11.58
2022-12-23T22:21:46.469Z,11.53
2022-12-23T22:24:14.749Z,11.49
2022-12-23T22:26:43.067Z,11.46
2022-12-23T22:29:12.718Z,10.60
2022-12-23T22:31:44.795Z,11.44
2022-12-23T22:34:15.565Z,11.44
2022-12-23T22:36:45.740Z,11.47
2022-12-23T22:39:20.682Z,11.35
2022-12-23T22:41:50.798Z,11.59
2022-12-23T22:44:19.527Z,11.61
2022-12-23T22:46:48.296Z,11.62
2022-12-23T22:49:17.826Z,11.58
2022-12-23T22:51:48.142Z,11.64
2022-12-23T22:54:16.931Z,11.62
2022-12-23T22:56:46.189Z,11.62
2022-12-23T22:59:21.963Z,11.63
2022-12-23T23:01:52.497Z,11.61
2022-12-23T23:04:21.681Z,11.64
2022-12-23T23:06:52.189Z,11.67
2022-12-23T23:09:23.618Z,11.68
2022-12-23T23:11:52.763Z,11.77
2022-12-23T23:14:21.650Z,11.77
2022-12-23T23:16:50.701Z,11.74
2022-12-23T23:19:23.184Z,11.75
2022-12-23T23:21:53.753Z,11.74
2022-12-23T23:24:27.742Z,11.69
2022-12-23T23:26:59.929Z,11.56
2022-12-23T23:29:30.053Z,11.52
2022-12-23T23:31:58.697Z,11.44
2022-12-23T23:34:27.494Z,11.54
2022-12-23T23:36:58.066Z,11.60
2022-12-23T23:39:27.143Z,11.66
2022-12-23T23:41:56.088Z,11.77
2022-12-23T23:44:25.057Z,11.85
2022-12-23T23:46:53.811Z,11.97
2022-12-23T23:49:24.098Z,12.07
2022-12-23T23:51:52.892Z,12.15
2022-12-23T23:54:23.236Z,12.23
2022-12-23T23:56:52.339Z,12.27
2022-12-23T23:59:22.214Z,12.32
